Flight Track Log - Related Links

Times and Time Zones

All times are in EDT time to prevent confusion due to time zone crossing. See the N96928 flight status page for this flight to view local times or setup timezone preferences in your user account.

Time Position Orientation Groundspeed Altitude Reporting Facility
EDT Latitude Longitude Course Direction KTS MPH feet Rate Location/Type
Wed 08:45:00 PM 40.7167 -73.4333 270° West 70 81 1,300  Level New York TRACON
Wed 08:46:00 PM 40.7167 -73.4500 270° West 90 104 1,900 600 Climbing New York TRACON
Wed 08:47:00 PM 40.7167 -73.4833 270° West 90 104 2,500 526 Climbing New York TRACON
Wed 08:47:54 PM 40.7333 -73.5167 303° West 108 124 2,900 500 Climbing New York TRACON
Wed 08:49:00 PM 40.7667 -73.5000 21° North 109 125 3,500 600 Climbing New York TRACON
Wed 08:49:54 PM 40.7833 -73.4833 37° Northeast 104 120 4,100 632 Climbing New York TRACON
Wed 08:50:54 PM 40.8167 -73.4667 21° North 103 119 4,700 600 Climbing New York TRACON
Wed 08:51:54 PM 40.8333 -73.4333 57° Northeast 107 123 5,300 550 Climbing New York TRACON
Wed 08:52:54 PM 40.8667 -73.4167 21° North 113 130 5,800 550 Climbing New York TRACON
Wed 08:53:54 PM 40.8833 -73.3833 57° Northeast 112 129 6,400 550 Climbing New York TRACON
Wed 08:54:54 PM 40.9167 -73.3667 21° North 117 135 6,900 250 Climbing New York TRACON
Wed 08:55:54 PM 40.9500 -73.3333 37° Northeast 147 169 6,900  Level New York TRACON
Wed 08:57:00 PM 40.9833 -73.3000 37° Northeast 156 180 6,900  Level New York TRACON
Wed 08:57:54 PM 41.0167 -73.3000 360° North 161 185 6,900  Level New York TRACON
Wed 08:58:54 PM 41.0667 -73.3000 360° North 157 181 6,900  Level New York TRACON
Wed 09:00:00 PM 41.1167 -73.3000 360° North 154 177 6,900  Level New York TRACON
Wed 09:00:54 PM 41.1500 -73.3000 360° North 155 178 6,900  Level New York TRACON
Wed 09:01:54 PM 41.2000 -73.3000 360° North 158 182 6,900  Level New York TRACON
Wed 09:02:51 PM 41.2406 -73.2986 North 170 196 6,900  Level Boston Center
Wed 09:03:51 PM 41.2800 -73.2992 359° North 160 184 6,900  Level Boston Center
Wed 09:04:51 PM 41.3239 -73.2969 North 155 178 6,900  Level Boston Center
Wed 09:05:51 PM 41.3633 -73.2947 North 162 186 6,900  Level Boston Center
Wed 09:06:51 PM 41.4114 -73.2869 North 157 181 6,900  Level Boston Center
Wed 09:07:51 PM 41.4511 -73.2875 359° North 157 181 6,900 50 Level Boston Center
Wed 09:08:52 PM 41.5011 -73.2828 North 157 181 7,000  Climbing Boston Center
Wed 09:09:51 PM 41.5428 -73.2806 North 162 186 6,900 -50 Descending Boston Center
Wed 09:10:51 PM 41.5883 -73.3061 337° Northwest 162 186 6,900 -423 Level Boston Center
Wed 09:13:24 PM 41.7000 -73.3667 338° Northwest 179 206 5,400 -620 Descending New York TRACON
Wed 09:14:24 PM 41.7500 -73.3833 346° North 174 200 4,700 -632 Descending New York TRACON
Wed 09:15:18 PM 41.7500 -73.4333 270° West 140 161 4,200 -421 Descending New York TRACON
Wed 09:16:18 PM 41.7500 -73.4833 270° West 132 152 3,900 -150 Descending New York TRACON
Wed 09:17:18 PM 41.7500 -73.5167 270° West 122 140 3,900  Level New York TRACON
Wed 09:18:18 PM 41.7500 -73.5667 270° West 121 139 3,900  Level New York TRACON
Wed 09:19:24 PM 41.7500 -73.6167 270° West 122 140 3,900  Level New York TRACON
Wed 09:20:18 PM 41.7500 -73.6500 270° West 121 139 3,900  Level New York TRACON
Wed 09:21:18 PM 41.7500 -73.7000 270° West 114 131 3,900  Level New York TRACON
Wed 09:22:24 PM 41.7500 -73.7500 270° West 112 129 3,900  Level New York TRACON
Wed 09:23:24 PM 41.7500 -73.7833 270° West 117 135 3,900  Level New York TRACON
Wed 09:24:24 PM 41.7333 -73.8333 246° West 118 136 3,900  Level New York TRACON
Wed 09:25:24 PM 41.7333 -73.8667 270° West 115 132 3,900  Level New York TRACON
Wed 09:26:24 PM 41.7167 -73.9167 246° West 114 131 3,900  Level New York TRACON
Wed 09:27:24 PM 41.7167 -73.9500 270° West 113 130 3,900  Level New York TRACON
Wed 09:28:18 PM 41.7000 -73.9833 236° Southwest 120 138 3,900  Level New York TRACON
Wed 09:29:18 PM 41.7000 -74.0333 270° West 113 130 3,900  Level New York TRACON
Wed 09:30:18 PM 41.6833 -74.0667 236° Southwest 113 130 3,900  Level New York TRACON
Wed 09:31:18 PM 41.6833 -74.1167 270° West 122 140 3,900 50 Level New York TRACON
Wed 09:32:18 PM 41.6667 -74.1500 236° Southwest 114 131 4,000 53 Climbing New York TRACON
Wed 09:33:12 PM 41.6667 -74.2000 270° West 118 136 4,000 -50 Level New York TRACON
Wed 09:34:18 PM 41.6500 -74.2333 236° Southwest 109 125 3,900 -48 Descending New York TRACON
Wed 09:35:18 PM 41.6333 -74.2667 236° Southwest 113 130 3,900  Level New York TRACON
Wed 09:36:18 PM 41.6000 -74.3000 217° Southwest 112 129 3,900  Level New York TRACON
Wed 09:37:18 PM 41.5833 -74.3333 236° Southwest 117 135 3,900  Level New York TRACON
Wed 09:38:18 PM 41.5667 -74.3667 236° Southwest 106 122 3,900  Level New York TRACON
Wed 09:39:18 PM 41.5500 -74.3833 217° Southwest 104 120 3,900 -100 Level New York TRACON
Wed 09:40:18 PM 41.5167 -74.3833 180° South 106 122 3,700 -400 Descending New York TRACON
Wed 09:41:18 PM 41.4833 -74.3667 159° South 120 138 3,100 -400 Descending New York TRACON
Wed 09:42:18 PM 41.4667 -74.3333 124° Southeast 116 133 2,900 -99 Descending New York TRACON
Wed 09:43:19 PM 41.4833 -74.3000 56° Northeast 125 144 2,900 -250 Level New York TRACON
Wed 09:44:18 PM 41.4833 -74.2500 90° East 124 143 2,400 -605 Descending New York TRACON
Wed 09:45:18 PM 41.4833 -74.2000 90° East 119 137 1,700 -600 Descending New York TRACON
Wed 09:46:18 PM 41.5000 -74.1667 56° Northeast 90 104 1,200 -500 Descending New York TRACON
Wed 09:47:18 PM 41.5000 -74.1333 90° East 98 113 700 -300 Descending New York TRACON
Wed 09:48:18 PM 41.5000 -74.1000 90° East 92 106 600 -100 Descending New York TRACON

Login

Don't have an account? Register now (free) for customized features, flight alerts, and more!